Time;durP1;ratioP1;P1;durP2;ratioP2;P2;SDS_P1;SDS_P2;PMS_P1;PMS_P2;Temp;Humidity;BMP_temperature;BMP_pressure;BME280_temperature;BME280_humidity;BME280_pressure;Samples;Min_cycle;Max_cycle;Signal;HPM_P1;HPM_P2
2021/03/25 00:00:49;;;;;;;8.82;5.03;;;18.20;56.00;;;;;;6212780;23;20086;-72
2021/03/25 00:03:17;;;;;;;11.27;5.57;;;18.20;56.00;;;;;;6213878;23;20001;-72
2021/03/25 00:05:44;;;;;;;9.63;5.47;;;18.10;56.10;;;;;;6213807;23;20001;-72
2021/03/25 00:08:13;;;;;;;8.93;5.30;;;18.10;56.00;;;;;;6213388;23;20099;-72
2021/03/25 00:10:39;;;;;;;7.82;5.20;;;18.10;56.00;;;;;;6213766;23;20442;-72
2021/03/25 00:13:06;;;;;;;11.23;5.82;;;18.10;56.50;;;;;;6213727;23;20011;-72
2021/03/25 00:15:32;;;;;;;10.15;5.57;;;18.10;56.10;;;;;;6213732;23;20001;-72
2021/03/25 00:17:59;;;;;;;9.68;5.55;;;18.00;56.00;;;;;;6186785;23;20344;-72
2021/03/25 00:20:24;;;;;;;7.55;5.18;;;18.10;56.10;;;;;;6213644;23;20000;-72
2021/03/25 00:22:50;;;;;;;12.45;5.50;;;18.00;56.10;;;;;;6213680;23;20511;-72
2021/03/25 00:25:19;;;;;;;9.23;5.40;;;18.00;56.10;;;;;;6213645;23;20501;-72
2021/03/25 00:27:45;;;;;;;9.65;5.53;;;18.00;56.00;;;;;;6213582;23;20517;-72
2021/03/25 00:30:14;;;;;;;9.23;5.45;;;18.00;56.00;;;;;;6213770;23;20028;-72
2021/03/25 00:32:40;;;;;;;8.55;5.28;;;17.90;56.00;;;;;;6213504;23;20004;-72
2021/03/25 00:35:08;;;;;;;11.15;6.00;;;17.90;56.00;;;;;;6213913;23;20004;-72
2021/03/25 00:37:34;;;;;;;9.45;5.70;;;17.90;56.00;;;;;;6213951;23;20016;-72
2021/03/25 00:40:00;;;;;;;10.32;6.10;;;17.90;56.00;;;;;;6213334;23;20500;-72
2021/03/25 00:42:26;;;;;;;11.35;5.97;;;17.90;56.00;;;;;;6213672;23;20310;-72
2021/03/25 00:44:52;;;;;;;10.15;5.97;;;17.80;56.00;;;;;;6213769;23;20011;-73
2021/03/25 00:47:17;;;;;;;10.35;6.05;;;17.80;55.90;;;;;;6213634;23;20353;-72
2021/03/25 00:49:43;;;;;;;10.48;6.00;;;17.80;56.00;;;;;;6213671;23;20461;-72
2021/03/25 00:52:09;;;;;;;10.02;5.95;;;17.80;56.00;;;;;;6187044;23;20011;-72
2021/03/25 00:54:34;;;;;;;11.02;6.97;;;17.80;56.00;;;;;;6213335;23;20075;-73
2021/03/25 00:57:00;;;;;;;11.43;6.03;;;17.80;55.90;;;;;;6213230;23;20054;-72
2021/03/25 00:59:26;;;;;;;11.90;6.57;;;17.80;56.00;;;;;;6213709;23;20344;-72
2021/03/25 01:01:51;;;;;;;10.57;6.38;;;17.80;56.00;;;;;;6213561;23;20005;-72
2021/03/25 01:04:17;;;;;;;8.00;5.78;;;17.70;56.50;;;;;;6213543;23;20008;-73
2021/03/25 01:06:42;;;;;;;9.32;5.75;;;17.70;56.00;;;;;;6213376;23;20008;-73
2021/03/25 01:09:21;;;;;;;11.55;6.32;;;17.70;56.00;;;;;;6213689;23;20055;-72
2021/03/25 01:11:48;;;;;;;10.20;6.13;;;17.60;55.90;;;;;;6213317;23;20001;-73
2021/03/25 01:14:14;;;;;;;9.00;6.05;;;17.70;56.00;;;;;;6213507;23;20487;-72
2021/03/25 01:16:44;;;;;;;9.00;4.57;;;17.60;55.90;;;;;;6213705;23;20001;-72
2021/03/25 01:19:31;;;;;;;12.30;5.47;;;17.60;55.90;;;;;;6213849;23;20005;-72
2021/03/25 01:21:57;;;;;;;12.45;6.20;;;17.60;56.00;;;;;;6213337;23;20343;-73
2021/03/25 01:24:23;;;;;;;9.15;6.10;;;17.60;56.00;;;;;;6187318;23;20027;-72
2021/03/25 01:26:49;;;;;;;12.45;6.30;;;17.60;55.90;;;;;;6213131;23;20068;-72
2021/03/25 01:29:16;;;;;;;10.75;6.20;;;17.50;56.00;;;;;;6213520;23;20043;-72
2021/03/25 01:31:41;;;;;;;10.05;6.22;;;17.50;56.00;;;;;;6214946;23;20000;-72
2021/03/25 01:34:09;;;;;;;9.07;5.80;;;17.50;56.00;;;;;;6215508;23;20345;-74
2021/03/25 01:36:35;;;;;;;8.85;5.82;;;17.50;56.00;;;;;;6214600;23;20102;-72
2021/03/25 01:39:01;;;;;;;10.45;6.10;;;17.50;56.00;;;;;;6215405;23;20024;-73
2021/03/25 01:41:28;;;;;;;11.45;6.38;;;17.50;56.00;;;;;;6215160;23;20104;-74
2021/03/25 01:43:55;;;;;;;11.68;7.07;;;17.50;56.00;;;;;;6214868;23;20001;-74
2021/03/25 01:46:36;;;;;;;8.68;6.07;;;17.50;56.00;;;;;;6188392;23;20055;-74
2021/03/25 01:49:15;;;;;;;12.10;6.03;;;17.40;55.90;;;;;;6214921;23;20013;-74
2021/03/25 01:52:03;;;;;;;11.52;7.18;;;17.40;56.00;;;;;;6188724;23;20001;-74
2021/03/25 01:54:43;;;;;;;10.25;6.57;;;17.40;55.90;;;;;;6215104;23;20333;-74
2021/03/25 01:57:53;;;;;;;9.80;6.38;;;17.40;56.00;;;;;;6215420;23;20443;-74
2021/03/25 02:00:32;;;;;;;14.63;7.22;;;17.40;55.90;;;;;;6214896;23;20000;-74
2021/03/25 02:03:19;;;;;;;11.90;6.25;;;17.40;56.00;;;;;;6214638;23;20005;-73
2021/03/25 02:06:06;;;;;;;11.85;6.60;;;17.40;56.00;;;;;;6214833;23;20075;-73
2021/03/25 02:08:35;;;;;;;9.05;5.80;;;17.30;55.90;;;;;;6214959;23;20035;-74
2021/03/25 02:11:10;;;;;;;11.40;6.20;;;17.30;55.90;;;;;;6214884;23;20000;-74
2021/03/25 02:13:48;;;;;;;10.35;6.55;;;17.30;55.90;;;;;;6214905;23;20004;-73
2021/03/25 02:16:28;;;;;;;9.90;6.07;;;17.30;55.90;;;;;;6188291;23;20008;-73
2021/03/25 02:19:01;;;;;;;10.25;6.47;;;17.30;56.00;;;;;;6188003;23;20167;-74
2021/03/25 02:21:48;;;;;;;12.25;6.78;;;17.30;56.00;;;;;;6214969;23;19996;-74
2021/03/25 02:24:38;;;;;;;10.73;6.45;;;17.30;56.00;;;;;;6215147;23;20035;-74
2021/03/25 02:27:36;;;;;;;11.18;6.57;;;17.20;56.00;;;;;;6187977;23;20056;-73
2021/03/25 02:30:09;;;;;;;12.73;6.35;;;17.20;55.90;;;;;;6193669;23;20414;-74
2021/03/25 02:32:45;;;;;;;13.77;6.32;;;17.20;56.00;;;;;;6214496;23;20008;-74
2021/03/25 02:35:41;;;;;;;9.75;6.60;;;17.20;56.00;;;;;;6215069;23;20001;-74
2021/03/25 02:38:18;;;;;;;10.00;5.90;;;17.20;56.60;;;;;;6214430;23;20020;-74
2021/03/25 02:40:51;;;;;;;9.40;6.30;;;17.20;56.00;;;;;;6214533;23;20380;-74
2021/03/25 02:43:23;;;;;;;10.13;5.85;;;17.20;56.00;;;;;;6214798;23;20028;-74
2021/03/25 02:45:58;;;;;;;9.43;6.45;;;17.20;56.00;;;;;;6214870;23;20004;-73
2021/03/25 02:48:24;;;;;;;11.88;6.90;;;17.20;56.00;;;;;;6214670;23;20032;-74
2021/03/25 02:50:57;;;;;;;11.65;6.55;;;17.10;55.90;;;;;;6214613;23;20332;-73
2021/03/25 02:53:39;;;;;;;10.98;6.03;;;17.10;56.00;;;;;;6214515;23;20008;-73
2021/03/25 02:56:10;;;;;;;10.25;5.90;;;17.10;56.50;;;;;;6214687;23;20000;-73
2021/03/25 02:58:39;;;;;;;10.98;6.38;;;17.10;56.00;;;;;;6214621;23;20405;-74
2021/03/25 03:01:10;;;;;;;9.82;6.03;;;17.10;56.00;;;;;;6214452;23;20452;-73
2021/03/25 03:03:40;;;;;;;9.00;5.20;;;17.10;56.10;;;;;;6214414;23;20000;-73
2021/03/25 03:06:15;;;;;;;7.82;5.43;;;17.10;56.10;;;;;;6214098;23;20314;-74
2021/03/25 03:08:44;;;;;;;7.75;5.22;;;17.10;56.00;;;;;;6214279;23;20036;-74
2021/03/25 03:11:16;;;;;;;10.93;5.22;;;17.00;56.00;;;;;;6214462;23;19997;-73
2021/03/25 03:13:46;;;;;;;8.45;5.63;;;17.00;56.20;;;;;;6214373;23;20000;-73
2021/03/25 03:16:37;;;;;;;8.77;5.53;;;17.00;56.10;;;;;;6214336;23;20001;-74
2021/03/25 03:19:26;;;;;;;8.48;5.90;;;17.00;56.10;;;;;;6214455;23;20437;-73
2021/03/25 03:22:00;;;;;;;8.88;5.97;;;17.00;56.10;;;;;;6214300;23;20050;-74
2021/03/25 03:24:26;;;;;;;10.70;5.15;;;17.00;56.20;;;;;;6214144;23;20448;-73
2021/03/25 03:26:59;;;;;;;10.50;6.32;;;16.90;56.20;;;;;;6214085;23;20024;-74
2021/03/25 03:29:27;;;;;;;8.68;5.88;;;16.90;56.10;;;;;;6214394;23;20004;-73
2021/03/25 03:32:09;;;;;;;8.38;5.63;;;16.90;56.20;;;;;;6214384;23;20004;-74
2021/03/25 03:34:40;;;;;;;9.57;5.30;;;16.90;56.10;;;;;;6213915;23;19996;-74
2021/03/25 03:37:43;;;;;;;8.38;5.70;;;16.90;56.20;;;;;;6214035;23;20005;-74
2021/03/25 03:40:28;;;;;;;10.18;6.18;;;16.90;56.40;;;;;;6214234;23;20000;-74
2021/03/25 03:42:59;;;;;;;9.43;6.13;;;16.80;56.40;;;;;;6213682;23;20012;-74
2021/03/25 03:45:27;;;;;;;15.02;6.35;;;16.80;57.00;;;;;;6213992;23;20318;-73
2021/03/25 03:47:55;;;;;;;9.18;5.32;;;16.80;56.40;;;;;;6213762;23;20453;-74
2021/03/25 03:50:30;;;;;;;9.80;5.35;;;16.80;56.40;;;;;;6214161;23;20044;-74
2021/03/25 03:52:56;;;;;;;11.70;6.37;;;16.80;56.40;;;;;;6213900;23;20028;-74
2021/03/25 03:55:23;;;;;;;7.28;4.65;;;16.80;56.40;;;;;;6213982;23;20235;-74
2021/03/25 03:58:06;;;;;;;10.32;6.03;;;16.80;57.00;;;;;;6214201;23;20322;-73
2021/03/25 04:01:06;;;;;;;7.72;5.15;;;16.80;56.50;;;;;;6213835;23;20000;-74
2021/03/25 04:03:44;;;;;;;10.35;6.53;;;16.80;56.50;;;;;;6187870;23;20004;-73
2021/03/25 04:06:22;;;;;;;8.02;5.93;;;16.70;56.40;;;;;;6213922;23;20425;-73
2021/03/25 04:09:09;;;;;;;8.75;5.28;;;16.70;56.70;;;;;;6213949;23;20456;-74
2021/03/25 04:11:45;;;;;;;10.48;5.55;;;16.70;56.60;;;;;;6213872;23;20079;-74
2021/03/25 04:14:16;;;;;;;9.57;5.50;;;16.60;56.60;;;;;;6213872;23;20035;-74
2021/03/25 04:16:43;;;;;;;10.07;5.75;;;16.70;56.60;;;;;;6213600;23;20420;-74
2021/03/25 04:19:14;;;;;;;8.98;5.43;;;16.60;56.80;;;;;;6213546;23;19997;-74
2021/03/25 04:21:47;;;;;;;8.02;5.40;;;16.70;56.60;;;;;;6213939;23;20005;-74
2021/03/25 04:24:19;;;;;;;10.15;5.28;;;16.60;56.70;;;;;;6213724;23;20050;-74
2021/03/25 04:26:55;;;;;;;11.38;5.68;;;16.60;56.70;;;;;;6213730;23;20440;-74
2021/03/25 04:29:29;;;;;;;10.38;5.65;;;16.60;56.70;;;;;;6214009;23;20012;-73
2021/03/25 04:31:56;;;;;;;9.10;5.93;;;16.60;56.80;;;;;;6213641;23;20055;-73
2021/03/25 04:34:22;;;;;;;10.15;5.22;;;16.60;56.80;;;;;;6214063;23;20000;-73
2021/03/25 04:36:48;;;;;;;9.55;4.68;;;16.60;56.80;;;;;;6214012;23;20011;-74
2021/03/25 04:39:17;;;;;;;7.88;5.25;;;16.60;56.60;;;;;;6213727;23;20044;-74
2021/03/25 04:41:44;;;;;;;9.20;5.65;;;16.60;56.60;;;;;;6213573;23;20378;-74
2021/03/25 04:44:21;;;;;;;14.05;6.43;;;16.60;56.60;;;;;;6213453;23;20463;-74
2021/03/25 04:47:16;;;;;;;7.93;5.38;;;16.60;56.70;;;;;;6186841;23;20066;-74
2021/03/25 04:49:44;;;;;;;8.82;5.57;;;16.60;56.70;;;;;;6197047;23;20068;-73
2021/03/25 04:52:17;;;;;;;8.68;5.50;;;16.60;56.70;;;;;;6213490;23;20089;-73
2021/03/25 04:54:43;;;;;;;10.55;5.40;;;16.60;56.70;;;;;;6186844;23;20353;-74
2021/03/25 04:57:24;;;;;;;10.80;5.47;;;16.60;56.60;;;;;;6213721;23;20004;-74
2021/03/25 04:59:51;;;;;;;11.48;5.47;;;16.60;57.30;;;;;;6214008;23;20004;-74
2021/03/25 05:02:17;;;;;;;6.80;4.95;;;16.60;56.80;;;;;;6213036;23;20005;-74
2021/03/25 05:04:46;;;;;;;9.95;5.00;;;16.60;57.00;;;;;;6214194;23;20003;-74
2021/03/25 05:07:21;;;;;;;10.45;4.95;;;16.50;57.10;;;;;;6215259;23;20005;-74
2021/03/25 05:09:47;;;;;;;7.18;4.90;;;16.50;57.00;;;;;;6215653;23;20012;-74
2021/03/25 05:12:16;;;;;;;6.63;4.57;;;16.50;57.10;;;;;;6215479;23;20001;-74
2021/03/25 05:14:43;;;;;;;10.05;5.00;;;16.50;57.10;;;;;;6215608;23;20008;-74
2021/03/25 05:17:34;;;;;;;8.68;5.15;;;16.50;57.10;;;;;;6215265;23;20003;-74
2021/03/25 05:20:17;;;;;;;6.95;4.68;;;16.50;57.00;;;;;;6215625;23;20005;-74
2021/03/25 05:23:15;;;;;;;7.82;4.75;;;16.50;57.10;;;;;;6215207;23;20001;-74
2021/03/25 05:25:55;;;;;;;9.77;5.07;;;16.50;57.20;;;;;;6174061;23;20008;-74
2021/03/25 05:28:32;;;;;;;8.68;4.85;;;16.40;57.10;;;;;;6215850;23;20008;-74
2021/03/25 05:31:00;;;;;;;8.48;4.80;;;16.40;57.20;;;;;;6215292;23;20337;-74
2021/03/25 05:33:31;;;;;;;7.65;4.50;;;16.50;57.20;;;;;;6215004;23;20032;-74
2021/03/25 05:36:03;;;;;;;8.18;5.50;;;16.40;57.30;;;;;;6215058;23;20000;-74
2021/03/25 05:38:28;;;;;;;8.80;5.15;;;16.50;57.30;;;;;;6215061;23;20012;-74
2021/03/25 05:41:08;;;;;;;7.95;4.95;;;16.40;57.30;;;;;;6215463;23;20070;-74
2021/03/25 05:44:07;;;;;;;8.18;4.65;;;16.40;57.30;;;;;;6215222;23;20004;-74
2021/03/25 05:46:57;;;;;;;9.45;5.75;;;16.40;57.30;;;;;;6215107;23;20334;-74
2021/03/25 05:49:28;;;;;;;6.32;4.70;;;16.40;57.30;;;;;;6215667;23;20082;-74
2021/03/25 05:52:19;;;;;;;8.77;4.95;;;16.40;57.40;;;;;;6215501;23;20114;-74
2021/03/25 05:55:10;;;;;;;7.90;4.78;;;16.40;57.40;;;;;;6215042;23;20314;-74
2021/03/25 05:57:54;;;;;;;7.22;5.10;;;16.50;57.40;;;;;;6214982;23;20000;-74
2021/03/25 06:00:31;;;;;;;8.00;5.22;;;16.40;57.50;;;;;;6214562;23;20019;-74
2021/03/25 06:03:27;;;;;;;9.02;5.63;;;16.40;57.60;;;;;;6215248;23;20001;-74
2021/03/25 06:05:55;;;;;;;9.75;5.35;;;16.30;57.60;;;;;;6209438;23;20445;-73
2021/03/25 06:08:56;;;;;;;8.27;5.57;;;16.30;58.10;;;;;;6214794;23;20048;-74
2021/03/25 06:11:43;;;;;;;7.57;4.57;;;16.30;57.60;;;;;;6214871;23;20035;-71
2021/03/25 06:14:17;;;;;;;8.63;5.43;;;16.30;57.60;;;;;;6214944;23;20001;-74
2021/03/25 06:17:05;;;;;;;7.55;4.30;;;16.30;57.70;;;;;;6214602;23;20001;-74
2021/03/25 06:20:01;;;;;;;7.40;4.38;;;16.30;57.70;;;;;;6214720;23;20425;-74
2021/03/25 06:22:39;;;;;;;7.65;4.63;;;16.30;57.70;;;;;;6215422;23;20012;-73
2021/03/25 06:25:45;;;;;;;7.40;4.80;;;16.30;57.90;;;;;;6214944;23;20079;-74
2021/03/25 06:28:19;;;;;;;6.38;4.35;;;16.30;57.90;;;;;;6214643;23;20012;-73
2021/03/25 06:30:56;;;;;;;7.25;4.88;;;16.30;57.90;;;;;;6214550;23;20007;-74
2021/03/25 06:33:30;;;;;;;8.43;4.63;;;16.30;57.80;;;;;;6214820;23;20086;-72
2021/03/25 06:36:04;;;;;;;7.15;4.72;;;16.30;57.90;;;;;;6215055;23;20005;-73
2021/03/25 06:38:43;;;;;;;7.40;4.93;;;16.30;57.90;;;;;;6214566;23;20058;-74
2021/03/25 06:41:17;;;;;;;7.65;4.70;;;16.30;57.80;;;;;;6214454;23;19996;-73
2021/03/25 06:43:53;;;;;;;7.47;4.78;;;16.30;57.90;;;;;;6214619;23;20000;-73
2021/03/25 06:46:25;;;;;;;8.23;4.97;;;16.30;57.90;;;;;;6214368;23;20000;-74
2021/03/25 06:48:57;;;;;;;6.53;4.72;;;16.30;57.90;;;;;;6214261;23;20020;-73
2021/03/25 06:51:35;;;;;;;9.55;4.80;;;16.30;58.00;;;;;;6214021;23;20353;-75
2021/03/25 06:54:16;;;;;;;5.80;4.65;;;16.30;58.00;;;;;;6214390;23;20007;-74
2021/03/25 06:56:48;;;;;;;6.90;4.47;;;16.30;58.00;;;;;;6214456;23;20007;-75
2021/03/25 06:59:28;;;;;;;6.75;3.85;;;16.20;58.00;;;;;;6214451;23;20005;-75
2021/03/25 07:02:02;;;;;;;6.15;4.43;;;16.30;58.10;;;;;;6214471;23;20004;-75
2021/03/25 07:04:32;;;;;;;5.60;3.78;;;16.30;58.50;;;;;;6214777;23;20054;-75
2021/03/25 07:07:02;;;;;;;8.23;3.90;;;16.40;58.00;;;;;;6214620;23;20000;-74
2021/03/25 07:09:34;;;;;;;8.00;3.78;;;16.40;57.90;;;;;;6214453;23;20437;-75
2021/03/25 07:12:03;;;;;;;5.32;3.53;;;16.50;58.10;;;;;;6214540;23;20024;-76
2021/03/25 07:14:42;;;;;;;7.78;4.10;;;16.60;58.30;;;;;;6214718;23;20008;-73
2021/03/25 07:17:09;;;;;;;7.75;3.33;;;16.80;58.80;;;;;;6214140;23;20062;-73
2021/03/25 07:19:37;;;;;;;8.57;4.90;;;16.90;58.70;;;;;;6187599;23;20059;-73
2021/03/25 07:22:19;;;;;;;7.40;4.07;;;17.00;59.00;;;;;;6214171;23;20044;-71
2021/03/25 07:24:45;;;;;;;24.15;5.60;;;17.20;59.10;;;;;;6214291;23;20337;-70
2021/03/25 07:27:16;;;;;;;15.65;5.53;;;17.20;59.20;;;;;;6214003;23;20012;-70
2021/03/25 07:29:45;;;;;;;18.30;5.25;;;17.30;59.00;;;;;;6214039;23;20024;-71
2021/03/25 07:32:10;;;;;;;12.85;5.20;;;17.30;60.20;;;;;;6213893;23;20001;-71
2021/03/25 07:34:45;;;;;;;15.63;5.40;;;17.40;60.70;;;;;;6213732;23;20080;-71
2021/03/25 07:37:14;;;;;;;14.57;4.88;;;17.50;60.50;;;;;;6213880;23;20009;-72
2021/03/25 07:39:50;;;;;;;19.60;5.32;;;17.50;60.40;;;;;;6214146;23;20005;-71
2021/03/25 07:42:32;;;;;;;12.30;5.20;;;17.60;59.80;;;;;;6213809;23;20318;-71
2021/03/25 07:45:22;;;;;;;13.35;5.25;;;17.70;59.90;;;;;;6214422;23;20437;-70
2021/03/25 07:47:49;;;;;;;10.07;4.28;;;17.80;60.10;;;;;;6214132;23;20017;-70
2021/03/25 07:50:19;;;;;;;10.18;4.95;;;17.90;60.90;;;;;;6213964;23;20055;-72
2021/03/25 07:52:45;;;;;;;8.32;4.28;;;18.00;60.70;;;;;;6214215;23;20088;-72
2021/03/25 07:55:13;;;;;;;11.80;4.32;;;18.10;60.40;;;;;;6213995;23;20032;-72
2021/03/25 07:57:44;;;;;;;8.38;3.72;;;18.20;59.90;;;;;;6214048;23;20005;-71
2021/03/25 08:00:27;;;;;;;8.07;3.85;;;18.30;59.60;;;;;;6214130;23;20135;-71
2021/03/25 08:03:14;;;;;;;6.63;3.45;;;18.50;59.50;;;;;;6213787;23;20008;-70
2021/03/25 08:05:40;;;;;;;6.78;3.17;;;18.50;59.10;;;;;;6213855;23;20337;-71
2021/03/25 08:08:30;;;;;;;8.98;3.03;;;18.60;58.90;;;;;;6213848;23;20330;-72
2021/03/25 08:11:15;;;;;;;6.07;2.78;;;18.70;58.60;;;;;;6213584;23;20452;-71
2021/03/25 08:13:54;;;;;;;8.77;3.55;;;18.70;58.40;;;;;;6213494;23;20401;-71
2021/03/25 08:16:21;;;;;;;11.43;3.30;;;18.70;58.40;;;;;;6213097;23;20080;-72
2021/03/25 08:19:18;;;;;;;9.82;3.70;;;18.60;58.50;;;;;;6186426;23;20007;-72
2021/03/25 08:22:02;;;;;;;8.80;3.72;;;18.60;58.70;;;;;;6187044;23;20389;-76
2021/03/25 08:24:51;;;;;;;7.53;3.13;;;18.60;58.60;;;;;;6213443;23;20023;-78
2021/03/25 08:27:55;;;;;;;8.27;3.47;;;18.60;58.70;;;;;;6158055;23;20333;-81
2021/03/25 08:30:44;;;;;;;5.93;3.55;;;18.60;58.50;;;;;;6156281;23;20008;-81
2021/03/25 08:33:31;;;;;;;9.82;4.47;;;18.60;58.50;;;;;;6187150;23;20008;-79
2021/03/25 08:36:09;;;;;;;10.45;4.32;;;18.60;58.40;;;;;;6213566;23;20012;-81
2021/03/25 08:39:10;;;;;;;7.93;4.80;;;18.60;58.50;;;;;;6187260;23;20047;-80
2021/03/25 08:41:44;;;;;;;10.30;4.82;;;18.60;58.50;;;;;;6213478;23;20459;-82
2021/03/25 08:44:32;;;;;;;8.25;4.50;;;18.60;58.30;;;;;;6214077;23;20059;-81
2021/03/25 08:47:19;;;;;;;13.10;4.32;;;18.60;58.20;;;;;;6213607;23;20018;-82
2021/03/25 08:50:16;;;;;;;9.35;4.00;;;18.60;58.20;;;;;;6213680;23;20013;-82
2021/03/25 08:52:43;;;;;;;;;;;18.60;58.10;;;;;;6187430;23;20027;-80
2021/03/25 08:55:32;;;;;;;12.40;3.83;;;18.60;58.10;;;;;;6213746;23;19900;-82
2021/03/25 08:58:05;;;;;;;9.80;4.60;;;18.60;58.10;;;;;;6213794;23;20005;-81
2021/03/25 09:00:36;;;;;;;7.35;4.03;;;18.50;58.10;;;;;;6213818;23;20005;-83
2021/03/25 09:03:10;;;;;;;7.63;4.20;;;18.50;58.10;;;;;;6214003;23;20067;-79
2021/03/25 09:05:40;;;;;;;7.35;4.43;;;18.50;58.10;;;;;;6213221;23;20000;-79
2021/03/25 09:08:18;;;;;;;10.82;4.30;;;18.50;58.20;;;;;;6214090;23;20000;-79
2021/03/25 09:10:49;;;;;;;7.22;4.28;;;18.50;58.20;;;;;;6213441;23;20004;-78
2021/03/25 09:13:19;;;;;;;7.75;4.38;;;18.40;58.10;;;;;;6186806;23;20001;-80
2021/03/25 09:15:45;;;;;;;7.15;4.10;;;18.40;58.10;;;;;;6213497;23;20008;-77
2021/03/25 09:18:19;;;;;;;9.00;4.45;;;18.40;58.00;;;;;;6213314;23;20008;-80
2021/03/25 09:20:49;;;;;;;8.50;4.60;;;18.40;58.00;;;;;;6186462;23;20009;-81
2021/03/25 09:23:32;;;;;;;8.85;4.25;;;18.40;58.00;;;;;;6213338;23;20008;-79
2021/03/25 09:26:11;;;;;;;7.75;4.60;;;18.40;57.90;;;;;;6213457;23;20920;-77
2021/03/25 09:29:02;;;;;;;5.45;3.60;;;18.40;57.90;;;;;;6213753;23;20013;-80
2021/03/25 09:31:38;;;;;;;7.55;3.97;;;18.40;58.00;;;;;;6213483;23;20413;-80
2021/03/25 09:34:09;;;;;;;8.80;4.53;;;18.30;57.90;;;;;;6213840;23;20031;-79
2021/03/25 09:36:35;;;;;;;7.95;4.18;;;18.40;57.90;;;;;;6213617;23;20001;-78
2021/03/25 09:39:02;;;;;;;8.75;5.05;;;18.40;57.90;;;;;;6213258;23;20067;-77
2021/03/25 09:41:31;;;;;;;6.60;4.28;;;18.40;57.80;;;;;;6213014;23;20047;-80
2021/03/25 09:44:05;;;;;;;8.93;4.53;;;18.40;57.70;;;;;;6213236;23;20023;-77
2021/03/25 09:46:54;;;;;;;8.38;4.22;;;18.40;57.70;;;;;;6213466;23;20039;-79
2021/03/25 09:49:20;;;;;;;5.15;4.07;;;18.40;57.70;;;;;;6213389;23;20008;-72
2021/03/25 09:51:47;;;;;;;8.45;4.20;;;18.40;57.60;;;;;;6213625;23;20001;-81
2021/03/25 09:54:25;;;;;;;8.18;4.60;;;18.40;57.60;;;;;;6214713;23;20098;-81
2021/03/25 09:57:32;;;;;;;7.00;4.20;;;18.40;57.60;;;;;;6215253;23;19997;-82
2021/03/25 10:00:22;;;;;;;9.32;4.57;;;18.30;57.60;;;;;;6188116;23;20012;-83
2021/03/25 10:02:48;;;;;;;6.40;3.85;;;18.30;57.70;;;;;;6214850;23;19996;-77
2021/03/25 10:05:33;;;;;;;6.68;4.13;;;18.30;57.80;;;;;;6215166;23;20004;-73
2021/03/25 10:08:16;;;;;;;6.53;4.10;;;18.20;57.90;;;;;;6214996;23;20012;-72
2021/03/25 10:10:50;;;;;;;9.02;4.45;;;18.20;58.00;;;;;;6214675;23;20055;-81
2021/03/25 10:13:40;;;;;;;6.43;4.10;;;18.10;57.90;;;;;;6187827;23;20055;-79
2021/03/25 10:16:30;;;;;;;6.63;3.78;;;18.20;58.00;;;;;;6214968;23;20006;-74
2021/03/25 10:18:58;;;;;;;7.40;4.22;;;18.10;58.00;;;;;;6214248;23;20005;-74
2021/03/25 10:21:45;;;;;;;5.45;3.90;;;18.10;58.10;;;;;;6213981;23;20437;-79
2021/03/25 10:24:50;;;;;;;4.88;3.28;;;18.00;58.20;;;;;;6214936;23;20085;-79
2021/03/25 10:27:42;;;;;;;7.60;3.70;;;18.00;58.30;;;;;;6197540;23;20004;-82
2021/03/25 10:30:43;;;;;;;7.85;4.10;;;18.00;58.50;;;;;;6209469;23;20504;-78
2021/03/25 10:33:13;;;;;;;5.25;3.75;;;17.90;59.10;;;;;;6093740;23;20431;-73
2021/03/25 10:35:55;;;;;;;6.88;3.92;;;17.90;58.60;;;;;;6193662;23;20455;-82
2021/03/25 10:38:29;;;;;;;5.80;3.40;;;17.90;59.20;;;;;;6213759;23;20055;-71
2021/03/25 10:41:01;;;;;;;5.35;4.07;;;17.80;58.70;;;;;;6187360;23;20011;-72
2021/03/25 10:43:35;;;;;;;5.28;3.70;;;17.80;58.70;;;;;;6214853;23;20005;-74
2021/03/25 10:46:05;;;;;;;6.53;3.45;;;17.80;58.80;;;;;;6214345;23;20011;-84
2021/03/25 10:48:36;;;;;;;5.45;3.50;;;17.70;58.80;;;;;;6214544;23;20510;-83
2021/03/25 10:51:15;;;;;;;5.05;3.40;;;17.70;58.90;;;;;;6187212;23;20004;-83
2021/03/25 10:53:52;;;;;;;5.72;3.97;;;17.70;59.00;;;;;;6187474;23;20084;-73
2021/03/25 10:56:27;;;;;;;6.10;3.42;;;17.70;59.00;;;;;;6214918;23;20425;-82
2021/03/25 10:59:01;;;;;;;7.88;3.65;;;17.70;59.00;;;;;;6214435;23;20005;-73
2021/03/25 11:01:30;;;;;;;4.28;3.38;;;17.70;58.90;;;;;;6214428;23;20005;-80
2021/03/25 11:03:56;;;;;;;6.70;3.85;;;17.80;58.90;;;;;;6214136;23;20005;-77
2021/03/25 11:06:40;;;;;;;5.18;3.35;;;17.80;58.80;;;;;;6213995;23;20001;-77
2021/03/25 11:09:16;;;;;;;4.93;3.22;;;17.90;58.70;;;;;;6213849;23;20016;-78
2021/03/25 11:11:42;;;;;;;5.35;3.58;;;17.90;58.50;;;;;;6214396;23;20001;-78
2021/03/25 11:14:11;;;;;;;6.82;3.08;;;17.90;58.70;;;;;;6214490;23;20054;-80
2021/03/25 11:16:36;;;;;;;6.72;3.00;;;17.80;58.50;;;;;;6214184;23;20000;-82
2021/03/25 11:19:06;;;;;;;4.35;2.58;;;18.00;58.80;;;;;;6214331;23;20072;-87
2021/03/25 11:21:38;;;;;;;6.18;2.40;;;18.20;58.50;;;;;;6214367;23;20000;-79
2021/03/25 11:24:06;;;;;;;4.22;2.42;;;18.50;58.20;;;;;;6187292;23;20137;-86
2021/03/25 11:26:32;;;;;;;4.65;1.50;;;18.80;58.10;;;;;;6212972;23;20005;-79
2021/03/25 11:29:01;;;;;;;3.88;2.00;;;19.20;58.40;;;;;;6186197;23;20498;-81
2021/03/25 11:31:30;;;;;;;4.40;2.10;;;19.40;58.10;;;;;;6213104;23;20065;-84
2021/03/25 11:33:57;;;;;;;5.15;2.58;;;19.60;58.50;;;;;;6213401;23;20001;-79
2021/03/25 11:36:45;;;;;;;4.53;2.50;;;19.50;57.80;;;;;;6213743;23;20436;-79
2021/03/25 11:39:17;;;;;;;7.60;3.05;;;19.40;57.20;;;;;;6214355;23;20005;-78
2021/03/25 11:41:43;;;;;;;5.45;2.83;;;19.20;57.50;;;;;;6214572;23;20032;-75
2021/03/25 11:44:10;;;;;;;4.60;2.80;;;19.10;57.50;;;;;;6214260;23;20007;-75
2021/03/25 11:46:40;;;;;;;6.38;2.10;;;19.10;57.70;;;;;;6214206;23;19996;-74
2021/03/25 11:49:13;;;;;;;5.45;2.20;;;19.10;57.90;;;;;;6186948;23;20016;-75
2021/03/25 11:51:45;;;;;;;3.28;1.80;;;19.10;57.90;;;;;;6187342;23;20080;-75
2021/03/25 11:54:26;;;;;;;7.25;2.22;;;19.30;57.80;;;;;;6214347;23;20016;-75
2021/03/25 11:56:56;;;;;;;4.30;2.28;;;19.40;57.70;;;;;;6187174;23;20008;-75
2021/03/25 11:59:41;;;;;;;4.50;1.90;;;19.50;57.50;;;;;;6187481;23;20058;-75
2021/03/25 12:02:08;;;;;;;5.95;1.95;;;19.60;57.40;;;;;;6214037;23;20511;-75
2021/03/25 12:04:34;;;;;;;10.70;1.90;;;19.80;57.30;;;;;;6213855;23;20004;-75
2021/03/25 12:07:03;;;;;;;8.05;2.17;;;19.90;57.50;;;;;;6213782;23;20004;-75
2021/03/25 12:09:32;;;;;;;3.63;2.00;;;20.00;57.40;;;;;;6213645;23;20028;-75
2021/03/25 12:11:59;;;;;;;6.38;2.20;;;20.10;57.10;;;;;;6213448;23;20008;-75
2021/03/25 12:14:25;;;;;;;4.60;2.03;;;20.10;57.20;;;;;;6212777;23;20389;-75
2021/03/25 12:16:53;;;;;;;4.45;2.25;;;20.10;57.20;;;;;;6212128;23;20039;-76
2021/03/25 12:19:19;;;;;;;6.63;2.85;;;20.10;57.40;;;;;;6185432;23;20001;-76
2021/03/25 12:21:45;;;;;;;5.28;2.47;;;20.10;58.10;;;;;;6212682;23;20353;-75
2021/03/25 12:24:11;;;;;;;5.07;2.17;;;20.10;58.10;;;;;;6212355;23;19992;-75
2021/03/25 12:26:37;;;;;;;5.65;2.35;;;20.30;58.10;;;;;;6212107;23;20435;-75
2021/03/25 12:29:03;;;;;;;4.05;2.03;;;20.50;57.90;;;;;;6212431;23;20013;-75
2021/03/25 12:31:36;;;;;;;5.22;2.60;;;20.60;57.40;;;;;;6212385;23;20071;-75
2021/03/25 12:34:02;;;;;;;5.13;2.53;;;20.80;57.50;;;;;;6212288;23;20000;-76
2021/03/25 12:36:28;;;;;;;6.35;2.67;;;20.70;57.70;;;;;;6212462;23;20003;-75
2021/03/25 12:38:54;;;;;;;4.50;2.25;;;20.70;57.60;;;;;;6213525;23;20084;-75
2021/03/25 12:41:30;;;;;;;5.53;2.45;;;20.60;57.80;;;;;;6213523;23;20039;-75
2021/03/25 12:43:55;;;;;;;;;;;20.60;58.20;;;;;;6213957;23;20441;-75
2021/03/25 12:46:21;;;;;;;5.85;2.58;;;20.70;58.00;;;;;;6213353;23;19989;-75
2021/03/25 12:48:46;;;;;;;5.25;2.78;;;20.80;57.60;;;;;;6213443;23;20021;-75
2021/03/25 12:51:13;;;;;;;5.60;2.60;;;21.00;57.70;;;;;;6213471;23;20032;-76
2021/03/25 12:53:41;;;;;;;4.78;2.38;;;21.00;56.90;;;;;;6213008;23;20036;-75
2021/03/25 12:56:10;;;;;;;5.35;2.42;;;21.10;56.50;;;;;;6213077;23;20000;-76
2021/03/25 12:58:38;;;;;;;4.72;2.20;;;21.00;56.50;;;;;;6213621;23;20039;-76
2021/03/25 13:01:09;;;;;;;5.28;2.22;;;20.90;57.10;;;;;;6213586;23;20388;-75
2021/03/25 13:03:36;;;;;;;4.25;2.60;;;20.80;56.80;;;;;;6213498;23;20009;-75
2021/03/25 13:06:04;;;;;;;5.38;2.20;;;20.70;56.90;;;;;;6213434;23;20001;-75
2021/03/25 13:08:29;;;;;;;5.25;2.22;;;20.60;57.20;;;;;;6213328;23;20349;-76
2021/03/25 13:10:55;;;;;;;4.45;2.22;;;20.50;57.20;;;;;;6186938;23;20093;-75
2021/03/25 13:13:21;;;;;;;3.85;2.17;;;20.40;57.20;;;;;;6213417;23;20005;-76
2021/03/25 13:15:46;;;;;;;5.55;2.22;;;20.40;57.30;;;;;;6186935;23;20059;-75
2021/03/25 13:18:12;;;;;;;2.90;2.25;;;20.40;57.40;;;;;;6213539;23;20544;-76
2021/03/25 13:20:38;;;;;;;4.75;1.85;;;20.30;57.10;;;;;;6212931;23;20456;-74
2021/03/25 13:23:04;;;;;;;5.32;2.72;;;20.50;56.80;;;;;;6186846;23;20004;-75